createdAt,value
2023-02-02T00:02:29.569Z,11.50
2023-02-02T00:05:22.713Z,13.70
2023-02-02T00:08:15.969Z,15.90
2023-02-02T00:11:09.059Z,13.70
2023-02-02T00:14:02.187Z,13.70
2023-02-02T00:16:55.620Z,14.40
2023-02-02T00:19:49.068Z,14.50
2023-02-02T00:22:41.809Z,14.30
2023-02-02T00:25:34.907Z,13.20
2023-02-02T00:28:27.648Z,15.50
2023-02-02T00:31:13.908Z,13.20
2023-02-02T00:34:06.791Z,14.30
2023-02-02T00:37:00.148Z,16.20
2023-02-02T00:39:53.149Z,16.20
2023-02-02T00:42:50.540Z,9.50
2023-02-02T00:45:43.397Z,9.80
2023-02-02T00:48:36.442Z,12.90
2023-02-02T00:51:29.246Z,10.90
2023-02-02T00:54:22.903Z,13.50
2023-02-02T00:57:17.396Z,9.30
2023-02-02T01:00:15.281Z,10.10
2023-02-02T01:03:08.248Z,10.40
2023-02-02T01:06:01.032Z,10.40
2023-02-02T01:08:53.855Z,10.10
2023-02-02T01:11:46.702Z,10.10
2023-02-02T01:14:39.448Z,10.50
2023-02-02T01:17:32.385Z,9.60
2023-02-02T01:20:25.944Z,10.00
2023-02-02T01:23:18.896Z,11.20
2023-02-02T01:26:13.964Z,9.40
2023-02-02T01:29:07.473Z,10.40
2023-02-02T01:32:00.872Z,8.40
2023-02-02T01:34:53.070Z,9.50
2023-02-02T01:37:45.989Z,8.10
2023-02-02T01:40:38.894Z,8.20
2023-02-02T01:43:52.809Z,7.90
2023-02-02T01:46:46.786Z,8.40
2023-02-02T01:49:41.530Z,7.60
2023-02-02T01:52:37.133Z,6.50
2023-02-02T01:55:32.900Z,7.90
2023-02-02T01:58:27.390Z,8.10
2023-02-02T02:01:20.364Z,9.20
2023-02-02T02:04:13.672Z,7.50
2023-02-02T02:07:02.357Z,8.10
2023-02-02T02:09:55.448Z,8.00
2023-02-02T02:12:49.021Z,7.30
2023-02-02T02:16:20.146Z,6.10
2023-02-02T02:19:27.308Z,7.70
2023-02-02T02:22:39.817Z,7.50
2023-02-02T02:26:16.416Z,10.20
2023-02-02T02:29:35.909Z,8.60
2023-02-02T02:32:37.932Z,9.00
2023-02-02T02:35:38.431Z,9.50
2023-02-02T02:38:40.186Z,8.80
2023-02-02T02:41:39.423Z,6.90
2023-02-02T02:44:33.750Z,9.10
2023-02-02T02:47:27.242Z,10.60
2023-02-02T02:50:20.607Z,10.50
2023-02-02T02:53:17.247Z,8.60
2023-02-02T02:56:18.815Z,10.00
2023-02-02T02:59:19.797Z,8.40
2023-02-02T03:02:41.271Z,11.20
2023-02-02T03:05:43.192Z,10.50
2023-02-02T03:08:41.689Z,8.90
2023-02-02T03:11:35.686Z,10.80
2023-02-02T03:14:28.887Z,9.80
2023-02-02T03:17:21.968Z,9.60
2023-02-02T03:20:06.552Z,11.40
2023-02-02T03:22:59.444Z,8.90
2023-02-02T03:25:52.411Z,8.10
2023-02-02T03:28:38.542Z,8.60
2023-02-02T03:31:32.317Z,6.40
2023-02-02T03:34:25.435Z,5.80
2023-02-02T03:37:19.856Z,5.30
2023-02-02T03:40:14.918Z,6.90
2023-02-02T03:43:08.239Z,5.20
2023-02-02T03:46:04.533Z,5.70
2023-02-02T03:48:50.137Z,6.10
2023-02-02T03:51:44.524Z,5.20
2023-02-02T03:54:38.459Z,5.20
2023-02-02T03:57:31.476Z,6.00
2023-02-02T04:00:26.620Z,5.00
2023-02-02T04:03:19.721Z,6.20
2023-02-02T04:06:14.544Z,6.90
2023-02-02T04:09:07.496Z,4.80
2023-02-02T04:12:03.451Z,6.10
2023-02-02T04:14:56.369Z,6.20
2023-02-02T04:17:51.006Z,5.80
2023-02-02T04:20:43.985Z,6.50
2023-02-02T04:23:37.276Z,6.80
2023-02-02T04:26:30.445Z,5.80
2023-02-02T04:29:23.696Z,5.60
2023-02-02T04:32:17.661Z,5.70
2023-02-02T04:35:12.084Z,5.50
2023-02-02T04:38:05.210Z,6.30
2023-02-02T04:40:59.329Z,6.40
2023-02-02T04:43:52.440Z,6.20
2023-02-02T04:46:47.343Z,9.20
2023-02-02T04:49:40.145Z,6.90
2023-02-02T04:52:35.426Z,7.90
2023-02-02T04:55:18.441Z,6.00
2023-02-02T04:58:11.658Z,5.80
2023-02-02T05:01:11.847Z,5.80
2023-02-02T05:03:54.231Z,5.30
2023-02-02T05:06:47.449Z,6.90
2023-02-02T05:09:42.088Z,6.40
2023-02-02T05:12:35.061Z,7.30
2023-02-02T05:15:28.076Z,6.50
2023-02-02T05:18:22.203Z,6.50
2023-02-02T05:21:15.180Z,6.80
2023-02-02T05:24:08.549Z,7.50
2023-02-02T05:27:01.719Z,5.60
2023-02-02T05:29:54.520Z,5.80
2023-02-02T05:32:47.476Z,7.40
2023-02-02T05:35:39.425Z,5.30
2023-02-02T05:38:32.680Z,7.80
2023-02-02T05:41:25.961Z,7.90
2023-02-02T05:44:19.643Z,6.20
2023-02-02T05:47:14.210Z,6.00
2023-02-02T05:50:08.225Z,7.30
2023-02-02T05:53:02.952Z,9.30
2023-02-02T05:55:55.984Z,8.20
2023-02-02T05:58:50.622Z,10.60
2023-02-02T06:01:43.479Z,10.70
2023-02-02T06:04:38.975Z,8.40
2023-02-02T06:07:32.195Z,10.90
2023-02-02T06:10:26.891Z,11.30
2023-02-02T06:13:19.671Z,10.50
2023-02-02T06:16:13.947Z,10.00
2023-02-02T06:19:06.732Z,12.40
2023-02-02T06:21:59.675Z,13.40
2023-02-02T06:24:53.633Z,12.90
2023-02-02T06:27:46.589Z,16.80
2023-02-02T06:30:27.224Z,13.80
2023-02-02T06:33:20.337Z,14.20
2023-02-02T06:36:13.514Z,16.30
2023-02-02T06:39:00.609Z,11.20
2023-02-02T06:41:53.724Z,12.40
2023-02-02T06:44:46.600Z,12.60
2023-02-02T06:47:39.343Z,12.00
2023-02-02T06:50:32.478Z,12.60
2023-02-02T06:53:26.848Z,12.10
2023-02-02T06:56:19.995Z,11.30
2023-02-02T06:59:13.148Z,17.50
2023-02-02T07:02:06.022Z,10.30
2023-02-02T07:04:57.954Z,11.10
2023-02-02T07:07:53.772Z,11.70
2023-02-02T07:11:12.718Z,11.90
2023-02-02T07:13:51.443Z,10.60
2023-02-02T07:16:44.169Z,11.20
2023-02-02T07:19:31.428Z,10.70
2023-02-02T07:22:24.252Z,12.20
2023-02-02T07:25:17.130Z,13.40
2023-02-02T07:28:00.290Z,13.90
2023-02-02T07:30:43.137Z,16.40
2023-02-02T07:33:40.212Z,14.30
2023-02-02T07:36:27.535Z,16.60
2023-02-02T07:39:10.394Z,12.40
2023-02-02T07:41:53.532Z,9.50
2023-02-02T07:44:49.266Z,11.70
2023-02-02T07:47:43.280Z,15.00
2023-02-02T07:50:36.718Z,14.90
2023-02-02T07:53:30.998Z,12.50
2023-02-02T07:56:15.493Z,13.70
2023-02-02T07:59:07.045Z,18.20
2023-02-02T08:01:58.536Z,15.30
2023-02-02T08:04:43.978Z,17.10
2023-02-02T08:07:38.714Z,13.80
2023-02-02T08:10:31.593Z,18.20
2023-02-02T08:13:25.341Z,12.90
2023-02-02T08:16:17.678Z,10.20
2023-02-02T08:19:11.051Z,12.40
2023-02-02T08:22:04.772Z,14.60
2023-02-02T08:24:48.198Z,11.60
2023-02-02T08:27:35.232Z,15.60
2023-02-02T08:30:29.784Z,15.10
2023-02-02T08:33:22.628Z,15.10
2023-02-02T08:36:06.068Z,16.50
2023-02-02T08:39:02.979Z,13.20
2023-02-02T08:41:59.782Z,12.70
2023-02-02T08:46:12.727Z,19.70
2023-02-02T08:48:10.710Z,14.90
2023-02-02T08:50:59.217Z,15.30
2023-02-02T08:53:51.747Z,20.50
2023-02-02T08:56:44.645Z,11.40
2023-02-02T08:59:38.009Z,10.10
2023-02-02T09:02:23.291Z,11.70
2023-02-02T09:05:16.179Z,12.90
2023-02-02T09:08:09.082Z,9.70
2023-02-02T09:11:06.264Z,12.50
2023-02-02T09:14:02.294Z,10.20
2023-02-02T09:16:56.535Z,15.60
2023-02-02T09:19:39.429Z,12.20
2023-02-02T09:22:24.843Z,12.30
2023-02-02T09:25:18.028Z,11.20
2023-02-02T09:28:11.013Z,12.10
2023-02-02T09:30:56.602Z,12.30
2023-02-02T09:33:42.611Z,13.80
2023-02-02T09:36:27.030Z,16.20
2023-02-02T09:39:29.527Z,22.20
2023-02-02T09:42:42.941Z,23.10
2023-02-02T09:45:47.544Z,19.70
2023-02-02T09:48:52.282Z,13.00
2023-02-02T09:51:50.814Z,11.40
2023-02-02T09:54:49.682Z,12.40
2023-02-02T09:57:47.525Z,9.10
2023-02-02T10:00:45.688Z,12.30
2023-02-02T10:03:45.465Z,7.50
2023-02-02T10:06:38.689Z,9.80
2023-02-02T10:09:41.266Z,9.10
2023-02-02T10:12:47.952Z,8.70
2023-02-02T10:15:45.223Z,8.50
2023-02-02T10:18:46.157Z,19.50
2023-02-02T10:21:46.848Z,9.00
2023-02-02T10:24:40.173Z,6.40
2023-02-02T10:27:39.592Z,21.10
2023-02-02T10:30:45.866Z,9.40
2023-02-02T10:33:41.018Z,11.80
2023-02-02T10:36:36.019Z,8.50
2023-02-02T10:39:41.807Z,10.00
2023-02-02T10:43:06.937Z,8.80
2023-02-02T10:45:55.995Z,7.10
2023-02-02T10:48:37.394Z,9.80
2023-02-02T10:51:31.289Z,7.70
2023-02-02T10:54:54.962Z,6.50
2023-02-02T10:57:59.420Z,10.20
2023-02-02T11:00:54.508Z,7.60
2023-02-02T11:03:47.892Z,9.60
2023-02-02T11:06:50.914Z,6.20
2023-02-02T11:09:45.631Z,11.20
2023-02-02T11:12:41.305Z,16.50
2023-02-02T11:15:33.625Z,9.20
2023-02-02T11:18:33.396Z,6.20
2023-02-02T11:21:28.692Z,7.30
2023-02-02T11:24:25.949Z,5.80
2023-02-02T11:27:26.137Z,5.90
2023-02-02T11:30:29.100Z,6.00
2023-02-02T11:33:28.914Z,7.80
2023-02-02T11:36:23.655Z,13.00
2023-02-02T11:39:22.885Z,11.30
2023-02-02T11:42:21.438Z,11.20
2023-02-02T11:45:21.387Z,10.60
2023-02-02T11:48:20.436Z,10.50
2023-02-02T11:51:25.864Z,12.40
2023-02-02T11:54:25.149Z,8.30
2023-02-02T11:57:22.753Z,11.50
2023-02-02T12:00:28.816Z,9.80
2023-02-02T12:03:33.217Z,10.20
2023-02-02T12:06:23.699Z,10.30
2023-02-02T12:09:22.526Z,8.90
2023-02-02T12:12:43.945Z,10.50
2023-02-02T12:15:47.786Z,9.40
2023-02-02T12:18:55.674Z,10.70
2023-02-02T12:21:50.619Z,9.20
2023-02-02T12:24:52.523Z,8.70
2023-02-02T12:27:57.472Z,11.10
2023-02-02T12:31:00.002Z,11.00
2023-02-02T12:34:02.319Z,8.60
2023-02-02T12:37:04.463Z,7.30
2023-02-02T12:40:17.701Z,7.30
2023-02-02T12:43:22.954Z,6.90
2023-02-02T12:46:40.707Z,8.60
2023-02-02T12:49:54.624Z,7.90
2023-02-02T12:53:08.819Z,9.50
2023-02-02T12:56:16.670Z,11.80
2023-02-02T12:59:19.836Z,9.40
2023-02-02T13:02:07.490Z,9.70
2023-02-02T13:05:14.532Z,7.10
2023-02-02T13:08:10.973Z,9.70
2023-02-02T13:11:31.064Z,8.60
2023-02-02T13:14:29.032Z,14.00
2023-02-02T13:17:27.282Z,15.40
2023-02-02T13:20:33.187Z,9.80
2023-02-02T13:23:30.306Z,9.20
2023-02-02T13:26:14.197Z,14.80
2023-02-02T13:29:03.662Z,8.30
2023-02-02T13:32:01.878Z,7.90
2023-02-02T13:34:58.555Z,9.80
2023-02-02T13:38:00.736Z,9.10
2023-02-02T13:40:56.305Z,9.60
2023-02-02T13:43:58.398Z,9.60
2023-02-02T13:46:58.086Z,13.00
2023-02-02T13:49:54.857Z,10.90
2023-02-02T13:53:10.671Z,11.30
2023-02-02T13:56:25.625Z,8.20
2023-02-02T13:59:37.100Z,10.00
2023-02-02T14:02:39.828Z,8.90
2023-02-02T14:05:36.103Z,14.20
2023-02-02T14:08:30.879Z,10.60
2023-02-02T14:11:28.729Z,7.40
2023-02-02T14:14:35.330Z,8.50
2023-02-02T14:17:56.375Z,10.80
2023-02-02T14:20:52.693Z,8.00
2023-02-02T14:23:56.451Z,8.20
2023-02-02T14:26:54.436Z,7.80
2023-02-02T14:30:17.751Z,9.90
2023-02-02T14:33:47.584Z,9.90
2023-02-02T14:36:52.986Z,11.10
2023-02-02T14:39:59.105Z,10.80
2023-02-02T14:43:25.629Z,7.30
2023-02-02T14:46:37.826Z,10.40
2023-02-02T14:49:39.207Z,10.20
2023-02-02T14:52:34.735Z,9.50
2023-02-02T14:55:30.377Z,9.20
2023-02-02T14:58:26.303Z,8.90
2023-02-02T15:01:24.859Z,9.70
2023-02-02T15:04:28.289Z,10.00
2023-02-02T15:07:40.266Z,9.60
2023-02-02T15:11:22.616Z,11.80
2023-02-02T15:14:10.748Z,11.60
2023-02-02T15:16:59.437Z,14.20
2023-02-02T15:19:57.492Z,11.60
2023-02-02T15:25:49.259Z,13.60
2023-02-02T15:28:49.678Z,14.90
2023-02-02T15:31:47.721Z,13.70
2023-02-02T15:34:48.789Z,10.80
2023-02-02T15:37:45.843Z,11.90
2023-02-02T15:40:40.943Z,11.80
2023-02-02T15:43:30.126Z,12.60
2023-02-02T15:46:26.542Z,11.30
2023-02-02T15:49:36.039Z,14.60
2023-02-02T15:52:33.178Z,12.80
2023-02-02T15:55:27.190Z,12.70
2023-02-02T15:58:29.144Z,11.90
2023-02-02T16:01:25.552Z,13.10
2023-02-02T16:04:22.458Z,13.80
2023-02-02T16:07:22.270Z,13.80
2023-02-02T16:10:23.859Z,12.30
2023-02-02T16:13:26.795Z,11.10
2023-02-02T16:16:29.113Z,11.40
2023-02-02T16:19:25.220Z,10.20
2023-02-02T16:22:21.319Z,13.10
2023-02-02T16:25:23.421Z,13.00
2023-02-02T16:28:18.736Z,12.70
2023-02-02T16:31:07.822Z,12.30
2023-02-02T16:34:02.793Z,12.10
2023-02-02T16:37:17.872Z,10.70
2023-02-02T16:40:29.810Z,12.00
2023-02-02T16:43:29.534Z,11.90
2023-02-02T16:46:45.720Z,11.60
2023-02-02T16:49:30.231Z,11.10
2023-02-02T16:52:24.543Z,10.40
2023-02-02T16:55:14.698Z,12.20
2023-02-02T16:58:07.562Z,14.80
2023-02-02T17:01:14.165Z,12.70
2023-02-02T17:04:17.517Z,12.60
2023-02-02T17:07:11.772Z,11.20
2023-02-02T17:10:14.044Z,11.60
2023-02-02T17:13:01.643Z,14.40
2023-02-02T17:15:54.814Z,12.30
2023-02-02T17:18:48.134Z,15.60
2023-02-02T17:21:41.193Z,13.30
2023-02-02T17:24:27.265Z,12.40
2023-02-02T17:27:03.627Z,10.40
2023-02-02T17:30:01.155Z,11.10
2023-02-02T17:32:54.297Z,12.00
2023-02-02T17:35:55.730Z,13.90
2023-02-02T17:38:40.806Z,13.80
2023-02-02T17:41:16.984Z,12.90
2023-02-02T17:43:49.771Z,10.90
2023-02-02T17:46:35.216Z,12.20
2023-02-02T17:49:28.070Z,14.40
2023-02-02T17:52:11.091Z,15.40
2023-02-02T17:54:52.007Z,12.00
2023-02-02T17:57:27.780Z,15.40
2023-02-02T18:00:23.427Z,11.90
2023-02-02T18:03:19.447Z,10.70
2023-02-02T18:06:00.669Z,10.90
2023-02-02T18:08:45.689Z,10.70
2023-02-02T18:11:38.880Z,10.80
2023-02-02T18:14:14.600Z,12.60
2023-02-02T18:16:47.409Z,12.20
2023-02-02T18:19:33.161Z,12.40
2023-02-02T18:22:18.685Z,19.00
2023-02-02T18:25:12.209Z,23.50
2023-02-02T18:27:57.832Z,14.00
2023-02-02T18:30:30.617Z,16.30
2023-02-02T18:33:03.451Z,17.30
2023-02-02T18:35:42.084Z,12.30
2023-02-02T18:38:19.720Z,14.60
2023-02-02T18:40:59.079Z,13.60
2023-02-02T18:43:32.485Z,15.10
2023-02-02T18:46:10.358Z,16.00
2023-02-02T18:48:48.387Z,14.00
2023-02-02T18:51:22.159Z,13.10
2023-02-02T18:54:00.405Z,12.60
2023-02-02T18:56:33.495Z,14.50
2023-02-02T18:59:06.946Z,14.10
2023-02-02T19:02:02.611Z,13.30
2023-02-02T19:04:37.113Z,15.10
2023-02-02T19:07:30.706Z,15.20
2023-02-02T19:10:14.202Z,11.30
2023-02-02T19:12:53.155Z,11.90
2023-02-02T19:15:47.244Z,11.40
2023-02-02T19:18:40.018Z,15.50
2023-02-02T19:21:20.238Z,15.30
2023-02-02T19:24:15.925Z,13.60
2023-02-02T19:26:54.096Z,12.70
2023-02-02T19:29:41.309Z,14.40
2023-02-02T19:32:27.020Z,16.30
2023-02-02T19:35:24.551Z,15.60
2023-02-02T19:38:07.779Z,11.80
2023-02-02T19:40:43.597Z,12.50
2023-02-02T19:43:37.182Z,11.70
2023-02-02T19:46:34.289Z,13.10
2023-02-02T19:49:16.224Z,13.20
2023-02-02T19:52:03.879Z,14.50
2023-02-02T19:54:57.040Z,12.00
2023-02-02T19:57:50.171Z,15.10
2023-02-02T20:00:44.998Z,10.20
2023-02-02T20:03:46.616Z,11.90
2023-02-02T20:06:27.026Z,13.40
2023-02-02T20:09:15.419Z,12.00
2023-02-02T20:12:23.564Z,14.20
2023-02-02T20:14:58.686Z,12.70
2023-02-02T20:17:34.566Z,12.30
2023-02-02T20:20:30.010Z,12.50
2023-02-02T20:25:41.674Z,10.90
2023-02-02T20:28:32.704Z,10.10
2023-02-02T20:31:18.347Z,9.50
2023-02-02T20:33:53.375Z,9.90
2023-02-02T20:36:39.288Z,11.50
2023-02-02T20:39:36.812Z,11.80
2023-02-02T20:42:20.921Z,13.10
2023-02-02T20:44:58.308Z,10.30
2023-02-02T20:47:52.482Z,10.00
2023-02-02T20:50:31.335Z,10.30
2023-02-02T20:53:10.099Z,12.30
2023-02-02T20:55:47.320Z,12.30
2023-02-02T20:58:33.065Z,12.70
2023-02-02T21:01:26.287Z,10.00
2023-02-02T21:04:21.339Z,12.40
2023-02-02T21:07:14.237Z,12.10
2023-02-02T21:10:07.977Z,13.40
2023-02-02T21:13:00.769Z,12.60
2023-02-02T21:15:53.514Z,11.90
2023-02-02T21:18:47.362Z,12.00
2023-02-02T21:21:40.472Z,13.60
2023-02-02T21:24:33.439Z,11.80
2023-02-02T21:27:26.246Z,11.60
2023-02-02T21:30:03.755Z,12.30
2023-02-02T21:32:58.174Z,11.80
2023-02-02T21:35:51.038Z,10.70
2023-02-02T21:38:45.238Z,9.80
2023-02-02T21:41:38.507Z,11.80
2023-02-02T21:44:27.615Z,13.80
2023-02-02T21:47:29.916Z,14.40
2023-02-02T21:50:21.376Z,18.70
2023-02-02T21:53:22.202Z,11.70
2023-02-02T21:59:31.108Z,11.10
2023-02-02T22:02:45.317Z,10.30
2023-02-02T22:05:39.062Z,11.40
2023-02-02T22:08:36.707Z,12.50
2023-02-02T22:11:31.269Z,11.40
2023-02-02T22:14:21.773Z,11.30
2023-02-02T22:17:23.133Z,12.30
2023-02-02T22:20:30.833Z,13.00
2023-02-02T22:23:04.722Z,13.80
2023-02-02T22:25:59.291Z,12.70
2023-02-02T22:28:52.178Z,12.70
2023-02-02T22:31:44.985Z,10.10
2023-02-02T22:34:30.924Z,10.80
2023-02-02T22:37:23.819Z,14.20
2023-02-02T22:40:22.692Z,11.50
2023-02-02T22:43:16.371Z,14.10
2023-02-02T22:46:09.315Z,14.60
2023-02-02T22:49:00.976Z,12.30
2023-02-02T22:51:46.132Z,13.60
2023-02-02T22:54:38.900Z,11.30
2023-02-02T22:57:32.247Z,12.50
2023-02-02T23:00:28.067Z,9.50
2023-02-02T23:03:21.143Z,10.50
2023-02-02T23:06:14.126Z,12.40
2023-02-02T23:09:06.993Z,13.00
2023-02-02T23:11:59.750Z,11.50
2023-02-02T23:14:52.579Z,11.40
2023-02-02T23:17:45.475Z,10.70
2023-02-02T23:20:38.442Z,12.70
2023-02-02T23:23:31.270Z,10.80
2023-02-02T23:26:24.475Z,10.10
2023-02-02T23:29:17.384Z,11.10
2023-02-02T23:32:10.334Z,10.70
2023-02-02T23:35:03.546Z,10.10
2023-02-02T23:37:56.423Z,10.40
2023-02-02T23:40:41.547Z,11.30
2023-02-02T23:43:26.931Z,9.50
2023-02-02T23:46:23.145Z,9.30
2023-02-02T23:49:16.320Z,10.30
2023-02-02T23:52:09.961Z,9.50
2023-02-02T23:55:02.846Z,9.30
2023-02-02T23:57:57.841Z,9.70
